Airfield :
LOGIN :

Register | Disclaimer

   EN    FR    IT 

 










Legend :    VFR   Marginal VFR   IFR   Intensive IFR   Very Intensive IFR
Visi :
Ceiling :
>= 8 km
>= 3000ft
5 to 8 km
1000 to 3000 ft
1500m to 5 km
500 to 1000 ft
800 to 1500m
200 to 500 ft
< 800m
< 200 ft
Symbols :   Thunderstorms  Fog  Heavy snow  Heavy precipitations  Wind > 20 kt
SIGMETs :     Misc.  Thunderstorms  Icing  Turbulence  Mountain Waves  Volcanic Ashes







- Airport Elevation : 126 ft
- IATA code : TIA


LATI - Rinas Mother Teresa Arpt - Tirana

CURRENT METAR :
  • 210420Z VRB02KT CAVOK 16/15 Q1016 NOSIG

EXPIRED METARs :
  • 210350Z 20003KT CAVOK 16/14 Q1016 NOSIG
  • 210320Z 16002KT CAVOK 16/15 Q1016 NOSIG
  • 210250Z 15002KT CAVOK 16/15 Q1016 NOSIG
  • 210220Z 13003KT CAVOK 16/15 Q1016 NOSIG
  • 210150Z VRB02KT CAVOK 17/15 Q1016 NOSIG

TAF TAF LATI
Valid from the 21 at 00:00 until the 22 at 00:00 UTC


202300Z 2100/2124 VRB03KT CAVOK TX31/2112Z TN16/2104Z
TEMPO 2111/2117 29010KT
No reported NOTAMs for that airfield.



MET'MAP, your aeronautical weather chart ! - Copyright ORBIFLY December 2007 - Disclaimer

ORBIFLY MET'MAP TEAM :

Programming & Development : Alexandra Zaïnal
Concept & Development : Baudouin d'Aumeries
Co-Development & Prog : Marc-Olivier Méhu
Technical & hardware support : Manuel Goepfert

Contact : metmap@orbifly.com




SOURCES & CREDITS :

   NOAA